Skip Navigation Links Skip Navigation Links

Current Weather

Trenton Mercer, Trenton, N.J.

For information only: do not use for flight planning or navigation.
Latest weather
Observation time Friday, July 10, 2020 9:53 PM EDT
Local time Friday, July 10, 2020 10:04 PM EDT
Flight conditions Instrument Meteorological Conditions
Winds
Wind direction Southwest (230°)
Wind speed 7 mph
Visibility 10 mi.
Sky condition
Ceiling 600 ft. broken clouds
Cloud layer broken clouds 600 ft.
Cloud layer overcast 1,200 ft.
Temperature 73°F
Dewpoint 72°F
Altimeter 29.62 in.Hg
Precipitation
Rain ended 9:32 PM
Precipitation last hour trace
Derived measurements
Relative humidity 96%
Density altitude 1826 ft.
Sea-level pressure 29.60 in.Hg
Remarks
Automated weather observing station with precipitation discriminator.
Ceiling.
METAR KTTN 110153Z 23006KT 10SM BKN006 OVC012 23/22 A2962 RMK AO2 RAE32 CIG 003V010 SLP022 P0000 T02280222

Settings

Location code

InnerDrive.Weather 4.0.6770.0 Release CLR 4.0.30319.42000
Copyright ©2018 Inner Drive Technology. All rights reserved. Portions Copyright ©1986-2018 David Braverman.

Find weather

Site navigation


Skip Navigation Links

Place info

Page info

PayPal - The safer, easier way to pay online!

Return home.

Copyright ©2020 Inner Drive Technology. Purveyors of fine, hand-crafted computer software. Page printed 2020-07-11T02:04:25 UTC.